MSC Maria Saveria — 3FLE8 — position and weather

sailwx.info

Track history (hours):
 
Tides and Currents Weather Stations Pressure Air Temp Water Temp Dewpoint Dewpoint Depression Visibility Wind Speed Wind Dir Waves Ship Positions

MSC Maria Saveria

Last reported at 2014-Nov-21 10:03 UTC. Time now 2014-Nov-25 20:47 UTC.
Position N 01°15' E 104°02'.

Length 366 m; draft 10.4 m.

Type: Ship (hazmat cat A). MMSI: 372400000.

Date/timePositionNaut miles runAvg speedWind from/ knotsBaromVisibWave heightAir tempDewpointWater temp
2014-Nov-21 10:03N 01°15' E 104°02'714.7
2014-Nov-21 09:33N 01°13' E 103°55'9 9.0
2014-Nov-21 08:33N 01°16' E 103°46'1 0.2
2014-Nov-21 06:06N 01°16' E 103°46'0 0.0
2014-Nov-21 03:21N 01°16' E 103°46'0 0.0
2014-Nov-21 02:18N 01°16' E 103°46'0 0.0
2014-Nov-21 01:33N 01°16' E 103°46'0 0.0
2014-Nov-20 09:15N 01°16' E 103°46'0 0.0
2014-Nov-20 08:33N 01°16' E 103°46'0 0.0
2014-Nov-20 00:33N 01°16' E 103°46'0 0.0
2014-Nov-19 21:27N 01°16' E 103°46'0 0.0
2014-Nov-19 17:09N 01°16' E 103°46'0 0.0
2014-Nov-19 16:30N 01°16' E 103°46'0 0.1
2014-Nov-19 15:30N 01°16' E 103°46'0 0.0
2014-Nov-19 14:30N 01°16' E 103°46'0 0.0
2014-Nov-19 13:33N 01°16' E 103°46'0 0.0
2014-Nov-19 12:24N 01°16' E 103°46'0 0.0
2014-Nov-19 11:33N 01°16' E 103°46'0 0.0
2014-Nov-19 10:06N 01°16' E 103°46'0 0.0
2014-Nov-19 09:30N 01°16' E 103°46'0 0.0
2014-Nov-19 08:30N 01°16' E 103°46'0 0.0
2014-Nov-19 07:27N 01°16' E 103°46'0 0.0
2014-Nov-19 06:30N 01°16' E 103°46'0 0.0
2014-Nov-19 05:24N 01°16' E 103°46'0 0.0
2014-Nov-19 04:33N 01°16' E 103°46'0 0.0
2014-Nov-19 03:30N 01°16' E 103°46'1 0.6
2014-Nov-19 02:33N 01°16' E 103°46'3 3.4
2014-Nov-19 01:33N 01°14' E 103°43'7 6.7
2014-Nov-19 00:33N 01°13' E 103°36'  
Track history (hours):
 
Tides and Currents Weather Stations Pressure Air Temp Water Temp Dewpoint Dewpoint Depression Visibility Wind Speed Wind Dir Waves Ship Positions

MSC Maria Saveria

Last reported at 2014-Nov-21 10:03 UTC. Time now 2014-Nov-25 20:47 UTC.
Position N 01°15' E 104°02'.

Length 366 m; draft 10.4 m.

Type: Ship (hazmat cat A). MMSI: 372400000.

Date/timePositionNaut miles runAvg speedWind from/ knotsBaromVisibWave heightAir tempDewpointWater temp
2014-Nov-21 10:03N 01°15' E 104°02'714.7
2014-Nov-21 09:33N 01°13' E 103°55'9 9.0
2014-Nov-21 08:33N 01°16' E 103°46'1 0.2
2014-Nov-21 06:06N 01°16' E 103°46'0 0.0
2014-Nov-21 03:21N 01°16' E 103°46'0 0.0
2014-Nov-21 02:18N 01°16' E 103°46'0 0.0
2014-Nov-21 01:33N 01°16' E 103°46'0 0.0
2014-Nov-20 09:15N 01°16' E 103°46'0 0.0
2014-Nov-20 08:33N 01°16' E 103°46'0 0.0
2014-Nov-20 00:33N 01°16' E 103°46'0 0.0
2014-Nov-19 21:27N 01°16' E 103°46'0 0.0
2014-Nov-19 17:09N 01°16' E 103°46'0 0.0
2014-Nov-19 16:30N 01°16' E 103°46'0 0.1
2014-Nov-19 15:30N 01°16' E 103°46'0 0.0
2014-Nov-19 14:30N 01°16' E 103°46'0 0.0
2014-Nov-19 13:33N 01°16' E 103°46'0 0.0
2014-Nov-19 12:24N 01°16' E 103°46'0 0.0
2014-Nov-19 11:33N 01°16' E 103°46'0 0.0
2014-Nov-19 10:06N 01°16' E 103°46'0 0.0
2014-Nov-19 09:30N 01°16' E 103°46'0 0.0
2014-Nov-19 08:30N 01°16' E 103°46'0 0.0
2014-Nov-19 07:27N 01°16' E 103°46'0 0.0
2014-Nov-19 06:30N 01°16' E 103°46'0 0.0
2014-Nov-19 05:24N 01°16' E 103°46'0 0.0
2014-Nov-19 04:33N 01°16' E 103°46'0 0.0
2014-Nov-19 03:30N 01°16' E 103°46'1 0.6
2014-Nov-19 02:33N 01°16' E 103°46'3 3.4
2014-Nov-19 01:33N 01°14' E 103°43'7 6.7
2014-Nov-19 00:33N 01°13' E 103°36'  

Dump ship's entire track history